sensor_id;sensor_type;location;lat;lon;timestamp;temperature;humidity
6270;DHT22;3168;51.684;6.954;2022-09-09T00:00:17;15.90;99.90
6270;DHT22;3168;51.684;6.954;2022-09-09T00:02:49;15.80;99.90
6270;DHT22;3168;51.684;6.954;2022-09-09T00:05:21;15.90;99.90
6270;DHT22;3168;51.684;6.954;2022-09-09T00:07:51;15.90;99.90
6270;DHT22;3168;51.684;6.954;2022-09-09T00:10:28;15.90;99.90
6270;DHT22;3168;51.684;6.954;2022-09-09T00:12:54;15.90;99.90
6270;DHT22;3168;51.684;6.954;2022-09-09T00:15:20;15.70;99.90
6270;DHT22;3168;51.684;6.954;2022-09-09T00:17:53;15.90;99.90
6270;DHT22;3168;51.684;6.954;2022-09-09T00:20:36;15.70;99.90
6270;DHT22;3168;51.684;6.954;2022-09-09T00:23:11;15.80;99.90
6270;DHT22;3168;51.684;6.954;2022-09-09T00:25:44;15.80;99.90
6270;DHT22;3168;51.684;6.954;2022-09-09T00:28:20;15.70;99.90
6270;DHT22;3168;51.684;6.954;2022-09-09T00:30:46;15.70;99.90
6270;DHT22;3168;51.684;6.954;2022-09-09T00:33:12;15.60;99.90
6270;DHT22;3168;51.684;6.954;2022-09-09T00:35:40;15.60;99.90
6270;DHT22;3168;51.684;6.954;2022-09-09T00:38:11;15.60;99.90
6270;DHT22;3168;51.684;6.954;2022-09-09T00:40:37;15.50;99.90
6270;DHT22;3168;51.684;6.954;2022-09-09T00:43:09;15.50;99.90
6270;DHT22;3168;51.684;6.954;2022-09-09T00:45:51;15.50;99.90
6270;DHT22;3168;51.684;6.954;2022-09-09T00:48:10;15.50;99.90
6270;DHT22;3168;51.684;6.954;2022-09-09T00:50:44;15.40;99.90
6270;DHT22;3168;51.684;6.954;2022-09-09T00:54:23;15.40;99.90
6270;DHT22;3168;51.684;6.954;2022-09-09T00:56:00;15.40;99.90
6270;DHT22;3168;51.684;6.954;2022-09-09T00:58:23;15.30;99.90
6270;DHT22;3168;51.684;6.954;2022-09-09T01:00:51;15.30;99.90
6270;DHT22;3168;51.684;6.954;2022-09-09T01:03:22;15.30;99.90
6270;DHT22;3168;51.684;6.954;2022-09-09T01:06:12;15.30;99.90
6270;DHT22;3168;51.684;6.954;2022-09-09T01:08:51;15.20;99.90
6270;DHT22;3168;51.684;6.954;2022-09-09T01:11:22;15.10;99.90
6270;DHT22;3168;51.684;6.954;2022-09-09T01:13:46;15.10;99.90
6270;DHT22;3168;51.684;6.954;2022-09-09T01:16:12;15.20;99.90
6270;DHT22;3168;51.684;6.954;2022-09-09T01:18:43;15.20;99.90
6270;DHT22;3168;51.684;6.954;2022-09-09T01:21:14;15.40;99.90
6270;DHT22;3168;51.684;6.954;2022-09-09T01:23:44;15.20;99.90
6270;DHT22;3168;51.684;6.954;2022-09-09T01:26:18;15.30;99.90
6270;DHT22;3168;51.684;6.954;2022-09-09T01:28:43;15.30;99.90
6270;DHT22;3168;51.684;6.954;2022-09-09T01:31:09;15.40;99.90
6270;DHT22;3168;51.684;6.954;2022-09-09T01:33:34;15.40;99.90
6270;DHT22;3168;51.684;6.954;2022-09-09T01:36:06;15.30;99.90
6270;DHT22;3168;51.684;6.954;2022-09-09T01:38:30;15.30;99.90
6270;DHT22;3168;51.684;6.954;2022-09-09T01:40:56;15.30;99.90
6270;DHT22;3168;51.684;6.954;2022-09-09T01:43:22;15.30;99.90
6270;DHT22;3168;51.684;6.954;2022-09-09T01:45:48;15.20;99.90
6270;DHT22;3168;51.684;6.954;2022-09-09T01:48:14;15.20;99.90
6270;DHT22;3168;51.684;6.954;2022-09-09T01:50:40;15.30;99.90
6270;DHT22;3168;51.684;6.954;2022-09-09T01:53:05;15.20;99.90
6270;DHT22;3168;51.684;6.954;2022-09-09T01:55:39;15.20;99.90
6270;DHT22;3168;51.684;6.954;2022-09-09T01:58:05;15.20;99.90
6270;DHT22;3168;51.684;6.954;2022-09-09T02:00:26;15.20;99.90
6270;DHT22;3168;51.684;6.954;2022-09-09T02:03:00;15.20;99.90
6270;DHT22;3168;51.684;6.954;2022-09-09T02:05:38;15.20;99.90
6270;DHT22;3168;51.684;6.954;2022-09-09T02:08:08;15.20;99.90
6270;DHT22;3168;51.684;6.954;2022-09-09T02:10:42;15.20;99.90
6270;DHT22;3168;51.684;6.954;2022-09-09T02:13:08;15.30;99.90
6270;DHT22;3168;51.684;6.954;2022-09-09T02:15:37;15.30;99.90
6270;DHT22;3168;51.684;6.954;2022-09-09T02:18:00;15.10;99.90
6270;DHT22;3168;51.684;6.954;2022-09-09T02:20:26;15.30;99.90
6270;DHT22;3168;51.684;6.954;2022-09-09T02:22:52;15.30;99.90
6270;DHT22;3168;51.684;6.954;2022-09-09T02:25:19;15.30;99.90
6270;DHT22;3168;51.684;6.954;2022-09-09T02:27:44;15.30;99.90
6270;DHT22;3168;51.684;6.954;2022-09-09T02:30:10;15.30;99.90
6270;DHT22;3168;51.684;6.954;2022-09-09T02:32:36;15.40;99.90
6270;DHT22;3168;51.684;6.954;2022-09-09T02:35:04;15.40;99.90
6270;DHT22;3168;51.684;6.954;2022-09-09T02:37:30;15.50;99.90
6270;DHT22;3168;51.684;6.954;2022-09-09T02:39:54;15.50;99.90
6270;DHT22;3168;51.684;6.954;2022-09-09T02:42:20;15.50;99.90
6270;DHT22;3168;51.684;6.954;2022-09-09T02:44:45;15.50;99.90
6270;DHT22;3168;51.684;6.954;2022-09-09T02:47:25;15.60;99.90
6270;DHT22;3168;51.684;6.954;2022-09-09T02:49:57;15.50;99.90
6270;DHT22;3168;51.684;6.954;2022-09-09T02:52:20;15.50;99.90
6270;DHT22;3168;51.684;6.954;2022-09-09T02:54:44;15.50;99.90
6270;DHT22;3168;51.684;6.954;2022-09-09T02:57:12;15.50;99.90
6270;DHT22;3168;51.684;6.954;2022-09-09T02:59:37;15.50;99.90
6270;DHT22;3168;51.684;6.954;2022-09-09T03:02:03;15.50;99.90
6270;DHT22;3168;51.684;6.954;2022-09-09T03:04:29;15.50;99.90
6270;DHT22;3168;51.684;6.954;2022-09-09T03:06:54;15.50;99.90
6270;DHT22;3168;51.684;6.954;2022-09-09T03:09:20;15.50;99.90
6270;DHT22;3168;51.684;6.954;2022-09-09T03:11:46;15.60;99.90
6270;DHT22;3168;51.684;6.954;2022-09-09T03:14:12;15.60;99.90
6270;DHT22;3168;51.684;6.954;2022-09-09T03:16:38;15.60;99.90
6270;DHT22;3168;51.684;6.954;2022-09-09T03:19:04;15.50;99.90
6270;DHT22;3168;51.684;6.954;2022-09-09T03:21:30;15.50;99.90
6270;DHT22;3168;51.684;6.954;2022-09-09T03:23:56;15.40;99.90
6270;DHT22;3168;51.684;6.954;2022-09-09T03:26:22;15.40;99.90
6270;DHT22;3168;51.684;6.954;2022-09-09T03:28:48;15.30;99.90
6270;DHT22;3168;51.684;6.954;2022-09-09T03:31:14;15.30;99.90
6270;DHT22;3168;51.684;6.954;2022-09-09T03:33:41;15.30;99.90
6270;DHT22;3168;51.684;6.954;2022-09-09T03:36:07;15.30;99.90
6270;DHT22;3168;51.684;6.954;2022-09-09T03:38:33;15.30;99.90
6270;DHT22;3168;51.684;6.954;2022-09-09T03:40:58;15.30;99.90
6270;DHT22;3168;51.684;6.954;2022-09-09T03:43:25;15.30;99.90
6270;DHT22;3168;51.684;6.954;2022-09-09T03:45:50;15.30;99.90
6270;DHT22;3168;51.684;6.954;2022-09-09T03:48:16;15.30;99.90
6270;DHT22;3168;51.684;6.954;2022-09-09T03:50:45;15.30;99.90
6270;DHT22;3168;51.684;6.954;2022-09-09T03:53:10;15.30;99.90
6270;DHT22;3168;51.684;6.954;2022-09-09T03:55:36;15.30;99.90
6270;DHT22;3168;51.684;6.954;2022-09-09T03:58:02;15.30;99.90
6270;DHT22;3168;51.684;6.954;2022-09-09T04:00:28;15.30;99.90
6270;DHT22;3168;51.684;6.954;2022-09-09T04:02:54;15.30;99.90
6270;DHT22;3168;51.684;6.954;2022-09-09T04:05:20;15.30;99.90
6270;DHT22;3168;51.684;6.954;2022-09-09T04:07:45;15.30;99.90
6270;DHT22;3168;51.684;6.954;2022-09-09T04:10:11;15.30;99.90
6270;DHT22;3168;51.684;6.954;2022-09-09T04:12:37;15.30;99.90
6270;DHT22;3168;51.684;6.954;2022-09-09T04:15:03;15.30;99.90
6270;DHT22;3168;51.684;6.954;2022-09-09T04:17:29;15.30;99.90
6270;DHT22;3168;51.684;6.954;2022-09-09T04:19:55;15.30;99.90
6270;DHT22;3168;51.684;6.954;2022-09-09T04:22:21;15.30;99.90
6270;DHT22;3168;51.684;6.954;2022-09-09T04:24:47;15.20;99.90
6270;DHT22;3168;51.684;6.954;2022-09-09T04:27:13;15.20;99.90
6270;DHT22;3168;51.684;6.954;2022-09-09T04:29:38;15.20;99.90
6270;DHT22;3168;51.684;6.954;2022-09-09T04:32:04;15.20;99.90
6270;DHT22;3168;51.684;6.954;2022-09-09T04:34:31;15.40;99.90
6270;DHT22;3168;51.684;6.954;2022-09-09T04:36:57;15.40;99.90
6270;DHT22;3168;51.684;6.954;2022-09-09T04:39:22;15.40;99.90
6270;DHT22;3168;51.684;6.954;2022-09-09T04:41:48;15.40;99.90
6270;DHT22;3168;51.684;6.954;2022-09-09T04:44:14;15.50;99.90
6270;DHT22;3168;51.684;6.954;2022-09-09T04:46:40;15.50;99.90
6270;DHT22;3168;51.684;6.954;2022-09-09T04:49:06;15.50;99.90
6270;DHT22;3168;51.684;6.954;2022-09-09T04:51:32;15.60;99.90
6270;DHT22;3168;51.684;6.954;2022-09-09T04:53:57;15.60;99.90
6270;DHT22;3168;51.684;6.954;2022-09-09T04:56:23;15.50;99.90
6270;DHT22;3168;51.684;6.954;2022-09-09T04:58:49;15.60;99.90
6270;DHT22;3168;51.684;6.954;2022-09-09T05:01:17;15.60;99.90
6270;DHT22;3168;51.684;6.954;2022-09-09T05:03:42;15.60;99.90
6270;DHT22;3168;51.684;6.954;2022-09-09T05:06:09;15.60;99.90
6270;DHT22;3168;51.684;6.954;2022-09-09T05:08:34;15.50;99.90
6270;DHT22;3168;51.684;6.954;2022-09-09T05:10:59;15.60;99.90
6270;DHT22;3168;51.684;6.954;2022-09-09T05:13:26;15.70;99.90
6270;DHT22;3168;51.684;6.954;2022-09-09T05:15:52;15.70;99.90
6270;DHT22;3168;51.684;6.954;2022-09-09T05:18:17;15.70;99.90
6270;DHT22;3168;51.684;6.954;2022-09-09T05:20:42;15.70;99.90
6270;DHT22;3168;51.684;6.954;2022-09-09T05:23:08;15.70;99.90
6270;DHT22;3168;51.684;6.954;2022-09-09T05:25:34;15.80;99.90
6270;DHT22;3168;51.684;6.954;2022-09-09T05:28:00;15.80;99.90
6270;DHT22;3168;51.684;6.954;2022-09-09T05:30:26;15.80;99.90
6270;DHT22;3168;51.684;6.954;2022-09-09T05:32:52;15.80;99.90
6270;DHT22;3168;51.684;6.954;2022-09-09T05:35:18;15.90;99.90
6270;DHT22;3168;51.684;6.954;2022-09-09T05:37:44;15.90;99.90
6270;DHT22;3168;51.684;6.954;2022-09-09T05:40:10;15.90;99.90
6270;DHT22;3168;51.684;6.954;2022-09-09T05:42:36;16.00;99.90
6270;DHT22;3168;51.684;6.954;2022-09-09T05:45:03;16.00;99.90
6270;DHT22;3168;51.684;6.954;2022-09-09T05:47:30;16.10;99.90
6270;DHT22;3168;51.684;6.954;2022-09-09T05:49:55;16.10;99.90
6270;DHT22;3168;51.684;6.954;2022-09-09T05:52:21;16.10;99.90
6270;DHT22;3168;51.684;6.954;2022-09-09T05:54:47;16.10;99.90
6270;DHT22;3168;51.684;6.954;2022-09-09T05:57:13;16.10;99.90
6270;DHT22;3168;51.684;6.954;2022-09-09T05:59:39;16.20;99.90
6270;DHT22;3168;51.684;6.954;2022-09-09T06:02:05;16.20;99.90
6270;DHT22;3168;51.684;6.954;2022-09-09T06:04:31;16.20;99.90
6270;DHT22;3168;51.684;6.954;2022-09-09T06:06:57;16.30;99.10
6270;DHT22;3168;51.684;6.954;2022-09-09T06:09:23;16.30;98.80
6270;DHT22;3168;51.684;6.954;2022-09-09T06:11:49;16.30;98.90
6270;DHT22;3168;51.684;6.954;2022-09-09T06:14:15;16.30;98.60
6270;DHT22;3168;51.684;6.954;2022-09-09T06:16:40;16.40;98.50
6270;DHT22;3168;51.684;6.954;2022-09-09T06:19:07;16.30;98.00
6270;DHT22;3168;51.684;6.954;2022-09-09T06:21:33;16.30;98.50
6270;DHT22;3168;51.684;6.954;2022-09-09T06:23:58;16.40;98.30
6270;DHT22;3168;51.684;6.954;2022-09-09T06:26:25;16.40;98.60
6270;DHT22;3168;51.684;6.954;2022-09-09T06:28:50;16.30;97.50
6270;DHT22;3168;51.684;6.954;2022-09-09T06:31:17;16.50;97.30
6270;DHT22;3168;51.684;6.954;2022-09-09T06:33:43;16.60;97.40
6270;DHT22;3168;51.684;6.954;2022-09-09T06:36:11;16.80;96.30
6270;DHT22;3168;51.684;6.954;2022-09-09T06:38:36;16.90;95.30
6270;DHT22;3168;51.684;6.954;2022-09-09T06:41:02;17.00;93.70
6270;DHT22;3168;51.684;6.954;2022-09-09T06:43:28;17.10;92.60
6270;DHT22;3168;51.684;6.954;2022-09-09T06:45:59;17.10;91.20
6270;DHT22;3168;51.684;6.954;2022-09-09T06:48:25;17.10;91.20
6270;DHT22;3168;51.684;6.954;2022-09-09T06:50:59;17.10;91.90
6270;DHT22;3168;51.684;6.954;2022-09-09T06:53:17;17.00;91.60
6270;DHT22;3168;51.684;6.954;2022-09-09T06:55:43;17.20;91.00
6270;DHT22;3168;51.684;6.954;2022-09-09T06:58:09;17.10;90.70
6270;DHT22;3168;51.684;6.954;2022-09-09T07:00:34;17.10;90.40
6270;DHT22;3168;51.684;6.954;2022-09-09T07:03:00;17.20;90.60
6270;DHT22;3168;51.684;6.954;2022-09-09T07:05:26;17.30;87.40
6270;DHT22;3168;51.684;6.954;2022-09-09T07:07:52;17.40;88.20
6270;DHT22;3168;51.684;6.954;2022-09-09T07:10:18;17.40;87.80
6270;DHT22;3168;51.684;6.954;2022-09-09T07:12:44;17.40;85.80
6270;DHT22;3168;51.684;6.954;2022-09-09T07:15:09;17.50;85.40
6270;DHT22;3168;51.684;6.954;2022-09-09T07:17:35;17.50;81.80
6270;DHT22;3168;51.684;6.954;2022-09-09T07:20:01;17.50;82.60
6270;DHT22;3168;51.684;6.954;2022-09-09T07:22:27;17.50;83.10
6270;DHT22;3168;51.684;6.954;2022-09-09T07:24:53;17.60;83.00
6270;DHT22;3168;51.684;6.954;2022-09-09T07:27:19;17.70;80.10
6270;DHT22;3168;51.684;6.954;2022-09-09T07:29:45;17.60;77.70
6270;DHT22;3168;51.684;6.954;2022-09-09T07:32:10;17.60;79.20
6270;DHT22;3168;51.684;6.954;2022-09-09T07:34:36;17.70;81.70
6270;DHT22;3168;51.684;6.954;2022-09-09T07:37:02;17.80;80.20
6270;DHT22;3168;51.684;6.954;2022-09-09T07:39:28;17.80;77.30
6270;DHT22;3168;51.684;6.954;2022-09-09T07:41:54;17.80;73.00
6270;DHT22;3168;51.684;6.954;2022-09-09T07:44:21;17.80;74.30
6270;DHT22;3168;51.684;6.954;2022-09-09T07:46:47;17.90;77.40
6270;DHT22;3168;51.684;6.954;2022-09-09T07:49:13;18.00;77.50
6270;DHT22;3168;51.684;6.954;2022-09-09T07:51:39;18.00;68.30
6270;DHT22;3168;51.684;6.954;2022-09-09T07:54:06;18.00;68.30
6270;DHT22;3168;51.684;6.954;2022-09-09T07:56:32;18.10;63.80
6270;DHT22;3168;51.684;6.954;2022-09-09T07:58:58;18.10;63.70
6270;DHT22;3168;51.684;6.954;2022-09-09T08:01:28;18.20;64.70
6270;DHT22;3168;51.684;6.954;2022-09-09T08:04:01;18.20;55.50
6270;DHT22;3168;51.684;6.954;2022-09-09T08:06:26;18.40;53.90
6270;DHT22;3168;51.684;6.954;2022-09-09T08:08:51;18.40;47.70
6270;DHT22;3168;51.684;6.954;2022-09-09T08:11:17;18.50;50.30
6270;DHT22;3168;51.684;6.954;2022-09-09T08:13:43;18.50;49.30
6270;DHT22;3168;51.684;6.954;2022-09-09T08:16:11;18.50;47.30
6270;DHT22;3168;51.684;6.954;2022-09-09T08:18:36;18.80;49.10
6270;DHT22;3168;51.684;6.954;2022-09-09T08:21:05;19.10;34.70
6270;DHT22;3168;51.684;6.954;2022-09-09T08:23:30;19.40;32.50
6270;DHT22;3168;51.684;6.954;2022-09-09T08:26:03;19.20;16.00
6270;DHT22;3168;51.684;6.954;2022-09-09T08:28:22;19.20;17.60
6270;DHT22;3168;51.684;6.954;2022-09-09T08:30:48;19.00;20.00
6270;DHT22;3168;51.684;6.954;2022-09-09T08:33:14;18.90;21.70
6270;DHT22;3168;51.684;6.954;2022-09-09T08:35:49;18.80;21.60
6270;DHT22;3168;51.684;6.954;2022-09-09T08:38:06;18.80;14.70
6270;DHT22;3168;51.684;6.954;2022-09-09T08:40:32;18.60;13.00
6270;DHT22;3168;51.684;6.954;2022-09-09T08:42:59;18.60;16.40
6270;DHT22;3168;51.684;6.954;2022-09-09T08:45:33;18.50;10.90
6270;DHT22;3168;51.684;6.954;2022-09-09T08:50:34;18.40;10.80
6270;DHT22;3168;51.684;6.954;2022-09-09T08:53:04;18.40;10.40
6270;DHT22;3168;51.684;6.954;2022-09-09T08:58:11;18.60;7.50
6270;DHT22;3168;51.684;6.954;2022-09-09T09:00:40;18.80;4.80
6270;DHT22;3168;51.684;6.954;2022-09-09T09:03:14;18.90;1.00
6270;DHT22;3168;51.684;6.954;2022-09-09T09:05:37;19.00;1.00
6270;DHT22;3168;51.684;6.954;2022-09-09T09:08:11;19.10;1.00
6270;DHT22;3168;51.684;6.954;2022-09-09T09:10:40;19.20;1.00
6270;DHT22;3168;51.684;6.954;2022-09-09T09:13:03;19.30;1.00
6270;DHT22;3168;51.684;6.954;2022-09-09T09:15:31;19.50;1.00
6270;DHT22;3168;51.684;6.954;2022-09-09T09:17:55;19.60;1.00
6270;DHT22;3168;51.684;6.954;2022-09-09T09:20:30;19.80;1.00
6270;DHT22;3168;51.684;6.954;2022-09-09T09:22:51;20.00;1.00
6270;DHT22;3168;51.684;6.954;2022-09-09T09:25:18;19.90;1.00
6270;DHT22;3168;51.684;6.954;2022-09-09T09:27:49;19.80;1.00
6270;DHT22;3168;51.684;6.954;2022-09-09T09:30:16;19.90;1.00
6270;DHT22;3168;51.684;6.954;2022-09-09T09:32:49;20.00;1.00
6270;DHT22;3168;51.684;6.954;2022-09-09T09:35:09;19.90;1.00
6270;DHT22;3168;51.684;6.954;2022-09-09T09:37:33;20.00;1.00
6270;DHT22;3168;51.684;6.954;2022-09-09T09:40:08;20.00;1.00
6270;DHT22;3168;51.684;6.954;2022-09-09T09:42:33;20.00;1.00
6270;DHT22;3168;51.684;6.954;2022-09-09T09:45:08;19.90;1.00
6270;DHT22;3168;51.684;6.954;2022-09-09T09:47:33;19.80;1.00
6270;DHT22;3168;51.684;6.954;2022-09-09T09:49:59;19.70;1.00
6270;DHT22;3168;51.684;6.954;2022-09-09T09:52:26;19.60;1.00
6270;DHT22;3168;51.684;6.954;2022-09-09T09:54:52;19.50;1.00
6270;DHT22;3168;51.684;6.954;2022-09-09T09:57:18;19.30;1.00
6270;DHT22;3168;51.684;6.954;2022-09-09T09:59:44;19.30;1.00
6270;DHT22;3168;51.684;6.954;2022-09-09T10:02:17;19.40;1.00
6270;DHT22;3168;51.684;6.954;2022-09-09T10:04:41;19.40;1.00
6270;DHT22;3168;51.684;6.954;2022-09-09T10:07:13;19.40;1.00
6270;DHT22;3168;51.684;6.954;2022-09-09T10:09:38;19.50;1.00
6270;DHT22;3168;51.684;6.954;2022-09-09T10:12:16;19.70;1.00
6270;DHT22;3168;51.684;6.954;2022-09-09T10:14:47;19.90;1.00
6270;DHT22;3168;51.684;6.954;2022-09-09T10:17:18;19.60;1.00
6270;DHT22;3168;51.684;6.954;2022-09-09T10:19:42;19.70;1.00
6270;DHT22;3168;51.684;6.954;2022-09-09T10:22:32;19.80;1.00
6270;DHT22;3168;51.684;6.954;2022-09-09T10:25:13;19.80;1.00
6270;DHT22;3168;51.684;6.954;2022-09-09T10:27:48;19.80;1.00
6270;DHT22;3168;51.684;6.954;2022-09-09T10:30:14;19.80;1.00
6270;DHT22;3168;51.684;6.954;2022-09-09T10:32:42;19.80;1.00
6270;DHT22;3168;51.684;6.954;2022-09-09T10:35:26;20.00;1.00
6270;DHT22;3168;51.684;6.954;2022-09-09T10:38:10;20.30;1.00
6270;DHT22;3168;51.684;6.954;2022-09-09T10:40:41;20.60;1.00
6270;DHT22;3168;51.684;6.954;2022-09-09T10:43:28;20.60;1.00
6270;DHT22;3168;51.684;6.954;2022-09-09T10:46:15;20.60;1.00
6270;DHT22;3168;51.684;6.954;2022-09-09T10:50:00;20.70;1.00
6270;DHT22;3168;51.684;6.954;2022-09-09T10:57:07;20.80;1.00
6270;DHT22;3168;51.684;6.954;2022-09-09T10:59:31;20.80;1.00
6270;DHT22;3168;51.684;6.954;2022-09-09T11:01:59;20.90;1.00
6270;DHT22;3168;51.684;6.954;2022-09-09T11:04:25;20.90;1.00
6270;DHT22;3168;51.684;6.954;2022-09-09T11:06:52;20.80;1.00
6270;DHT22;3168;51.684;6.954;2022-09-09T11:09:17;20.30;1.00
6270;DHT22;3168;51.684;6.954;2022-09-09T11:11:45;20.10;1.00
6270;DHT22;3168;51.684;6.954;2022-09-09T11:14:17;20.00;1.00
6270;DHT22;3168;51.684;6.954;2022-09-09T11:16:42;19.60;1.00
6270;DHT22;3168;51.684;6.954;2022-09-09T11:19:27;19.30;1.00
6270;DHT22;3168;51.684;6.954;2022-09-09T11:21:51;19.00;9.70
6270;DHT22;3168;51.684;6.954;2022-09-09T11:24:23;18.90;19.30
6270;DHT22;3168;51.684;6.954;2022-09-09T11:26:51;18.90;16.90
6270;DHT22;3168;51.684;6.954;2022-09-09T11:29:23;18.90;19.70
6270;DHT22;3168;51.684;6.954;2022-09-09T11:32:09;19.00;19.40
6270;DHT22;3168;51.684;6.954;2022-09-09T11:40:23;19.40;1.00
6270;DHT22;3168;51.684;6.954;2022-09-09T11:42:59;19.60;1.00
6270;DHT22;3168;51.684;6.954;2022-09-09T11:45:28;19.70;1.00
6270;DHT22;3168;51.684;6.954;2022-09-09T11:47:55;19.70;1.00
6270;DHT22;3168;51.684;6.954;2022-09-09T11:50:29;19.80;1.00
6270;DHT22;3168;51.684;6.954;2022-09-09T11:55:26;19.90;1.00
6270;DHT22;3168;51.684;6.954;2022-09-09T11:58:01;19.90;1.00
6270;DHT22;3168;51.684;6.954;2022-09-09T12:00:38;20.00;1.00
6270;DHT22;3168;51.684;6.954;2022-09-09T12:03:03;19.90;1.00
6270;DHT22;3168;51.684;6.954;2022-09-09T12:05:42;20.00;1.00
6270;DHT22;3168;51.684;6.954;2022-09-09T12:08:10;20.10;1.00
6270;DHT22;3168;51.684;6.954;2022-09-09T12:10:38;20.40;1.00
6270;DHT22;3168;51.684;6.954;2022-09-09T12:13:15;20.50;1.00
6270;DHT22;3168;51.684;6.954;2022-09-09T12:15:34;20.60;1.00
6270;DHT22;3168;51.684;6.954;2022-09-09T12:18:00;20.70;1.00
6270;DHT22;3168;51.684;6.954;2022-09-09T12:20:36;20.80;1.00
6270;DHT22;3168;51.684;6.954;2022-09-09T12:24:11;20.60;1.00
6270;DHT22;3168;51.684;6.954;2022-09-09T12:32:00;20.20;1.00
6270;DHT22;3168;51.684;6.954;2022-09-09T12:34:41;20.20;1.00
6270;DHT22;3168;51.684;6.954;2022-09-09T12:37:25;20.20;1.00
6270;DHT22;3168;51.684;6.954;2022-09-09T12:39:52;20.20;1.00
6270;DHT22;3168;51.684;6.954;2022-09-09T12:42:19;20.20;1.00
6270;DHT22;3168;51.684;6.954;2022-09-09T12:44:51;20.30;1.00
6270;DHT22;3168;51.684;6.954;2022-09-09T12:47:16;20.30;1.00
6270;DHT22;3168;51.684;6.954;2022-09-09T12:49:42;20.20;1.00
6270;DHT22;3168;51.684;6.954;2022-09-09T12:52:14;20.00;1.00
6270;DHT22;3168;51.684;6.954;2022-09-09T12:54:42;20.00;1.00
6270;DHT22;3168;51.684;6.954;2022-09-09T12:57:04;20.00;1.00
6270;DHT22;3168;51.684;6.954;2022-09-09T12:59:36;20.00;1.00
6270;DHT22;3168;51.684;6.954;2022-09-09T13:02:01;19.80;1.00
6270;DHT22;3168;51.684;6.954;2022-09-09T13:04:27;19.80;1.00
6270;DHT22;3168;51.684;6.954;2022-09-09T13:06:52;19.70;1.00
6270;DHT22;3168;51.684;6.954;2022-09-09T13:09:19;19.40;1.00
6270;DHT22;3168;51.684;6.954;2022-09-09T13:11:47;18.70;34.30
6270;DHT22;3168;51.684;6.954;2022-09-09T13:14:13;18.60;55.00
6270;DHT22;3168;51.684;6.954;2022-09-09T13:16:37;18.50;55.60
6270;DHT22;3168;51.684;6.954;2022-09-09T13:19:07;18.60;62.20
6270;DHT22;3168;51.684;6.954;2022-09-09T13:21:34;18.40;59.30
6270;DHT22;3168;51.684;6.954;2022-09-09T13:23:59;18.30;68.60
6270;DHT22;3168;51.684;6.954;2022-09-09T13:26:26;18.00;66.20
6270;DHT22;3168;51.684;6.954;2022-09-09T13:28:51;18.10;62.50
6270;DHT22;3168;51.684;6.954;2022-09-09T13:31:20;18.10;68.40
6270;DHT22;3168;51.684;6.954;2022-09-09T13:33:44;18.40;76.00
6270;DHT22;3168;51.684;6.954;2022-09-09T13:36:10;18.50;76.10
6270;DHT22;3168;51.684;6.954;2022-09-09T13:38:40;18.70;76.80
6270;DHT22;3168;51.684;6.954;2022-09-09T13:41:05;19.10;76.10
6270;DHT22;3168;51.684;6.954;2022-09-09T13:43:33;19.30;64.90
6270;DHT22;3168;51.684;6.954;2022-09-09T13:45:59;19.20;52.40
6270;DHT22;3168;51.684;6.954;2022-09-09T13:48:24;19.20;58.60
6270;DHT22;3168;51.684;6.954;2022-09-09T13:50:58;19.50;61.40
6270;DHT22;3168;51.684;6.954;2022-09-09T13:53:24;19.50;49.70
6270;DHT22;3168;51.684;6.954;2022-09-09T13:55:50;19.50;49.80
6270;DHT22;3168;51.684;6.954;2022-09-09T13:58:16;19.70;46.70
6270;DHT22;3168;51.684;6.954;2022-09-09T14:00:41;19.90;43.40
6270;DHT22;3168;51.684;6.954;2022-09-09T14:03:07;20.10;30.70
6270;DHT22;3168;51.684;6.954;2022-09-09T14:05:33;19.90;27.90
6270;DHT22;3168;51.684;6.954;2022-09-09T14:07:59;19.80;30.00
6270;DHT22;3168;51.684;6.954;2022-09-09T14:10:25;19.80;28.70
6270;DHT22;3168;51.684;6.954;2022-09-09T14:12:51;19.80;26.20
6270;DHT22;3168;51.684;6.954;2022-09-09T14:15:17;19.90;30.50
6270;DHT22;3168;51.684;6.954;2022-09-09T14:17:42;19.70;23.70
6270;DHT22;3168;51.684;6.954;2022-09-09T14:20:09;19.60;22.20
6270;DHT22;3168;51.684;6.954;2022-09-09T14:22:35;19.80;31.20
6270;DHT22;3168;51.684;6.954;2022-09-09T14:25:00;19.80;27.90
6270;DHT22;3168;51.684;6.954;2022-09-09T14:27:26;20.00;23.50
6270;DHT22;3168;51.684;6.954;2022-09-09T14:29:52;20.00;14.30
6270;DHT22;3168;51.684;6.954;2022-09-09T14:32:18;19.90;23.90
6270;DHT22;3168;51.684;6.954;2022-09-09T14:34:44;19.80;20.00
6270;DHT22;3168;51.684;6.954;2022-09-09T14:37:10;19.90;19.20
6270;DHT22;3168;51.684;6.954;2022-09-09T14:39:35;19.80;26.00
6270;DHT22;3168;51.684;6.954;2022-09-09T14:42:01;19.90;26.40
6270;DHT22;3168;51.684;6.954;2022-09-09T14:44:27;19.80;17.80
6270;DHT22;3168;51.684;6.954;2022-09-09T14:46:53;19.80;18.10
6270;DHT22;3168;51.684;6.954;2022-09-09T14:49:19;19.70;15.90
6270;DHT22;3168;51.684;6.954;2022-09-09T14:51:44;19.80;19.90
6270;DHT22;3168;51.684;6.954;2022-09-09T14:54:10;19.70;13.20
6270;DHT22;3168;51.684;6.954;2022-09-09T14:56:36;19.60;11.60
6270;DHT22;3168;51.684;6.954;2022-09-09T14:59:02;19.40;14.70
6270;DHT22;3168;51.684;6.954;2022-09-09T15:01:28;19.10;51.50
6270;DHT22;3168;51.684;6.954;2022-09-09T15:03:55;18.00;85.30
6270;DHT22;3168;51.684;6.954;2022-09-09T15:06:20;17.40;94.90
6270;DHT22;3168;51.684;6.954;2022-09-09T15:08:45;17.10;99.90
6270;DHT22;3168;51.684;6.954;2022-09-09T15:11:12;16.80;99.90
6270;DHT22;3168;51.684;6.954;2022-09-09T15:13:38;16.60;99.90
6270;DHT22;3168;51.684;6.954;2022-09-09T15:16:08;16.10;99.90
6270;DHT22;3168;51.684;6.954;2022-09-09T15:18:36;16.00;99.90
6270;DHT22;3168;51.684;6.954;2022-09-09T15:21:03;16.00;99.90
6270;DHT22;3168;51.684;6.954;2022-09-09T15:23:28;16.10;99.90
6270;DHT22;3168;51.684;6.954;2022-09-09T15:25:54;15.90;99.90
6270;DHT22;3168;51.684;6.954;2022-09-09T15:28:20;15.90;99.90
6270;DHT22;3168;51.684;6.954;2022-09-09T15:30:47;15.90;99.90
6270;DHT22;3168;51.684;6.954;2022-09-09T15:33:12;15.80;99.90
6270;DHT22;3168;51.684;6.954;2022-09-09T15:35:38;15.80;99.90
6270;DHT22;3168;51.684;6.954;2022-09-09T15:38:04;15.90;99.90
6270;DHT22;3168;51.684;6.954;2022-09-09T15:40:31;15.80;99.90
6270;DHT22;3168;51.684;6.954;2022-09-09T15:42:57;15.80;99.90
6270;DHT22;3168;51.684;6.954;2022-09-09T15:45:23;15.70;99.90
6270;DHT22;3168;51.684;6.954;2022-09-09T15:47:49;15.80;99.90
6270;DHT22;3168;51.684;6.954;2022-09-09T15:50:15;15.70;99.90
6270;DHT22;3168;51.684;6.954;2022-09-09T15:52:40;15.90;99.90
6270;DHT22;3168;51.684;6.954;2022-09-09T15:55:07;15.90;99.90
6270;DHT22;3168;51.684;6.954;2022-09-09T15:57:35;16.00;99.90
6270;DHT22;3168;51.684;6.954;2022-09-09T16:00:02;15.80;99.90
6270;DHT22;3168;51.684;6.954;2022-09-09T16:02:27;16.10;99.90
6270;DHT22;3168;51.684;6.954;2022-09-09T16:04:54;16.20;99.90
6270;DHT22;3168;51.684;6.954;2022-09-09T16:07:20;16.20;99.90
6270;DHT22;3168;51.684;6.954;2022-09-09T16:09:45;16.20;99.90
6270;DHT22;3168;51.684;6.954;2022-09-09T16:12:12;16.50;99.90
6270;DHT22;3168;51.684;6.954;2022-09-09T16:14:38;16.50;99.90
6270;DHT22;3168;51.684;6.954;2022-09-09T16:17:04;16.60;99.90
6270;DHT22;3168;51.684;6.954;2022-09-09T16:19:29;16.70;99.90
6270;DHT22;3168;51.684;6.954;2022-09-09T16:21:56;16.80;99.90
6270;DHT22;3168;51.684;6.954;2022-09-09T16:24:21;16.90;99.90
6270;DHT22;3168;51.684;6.954;2022-09-09T16:26:48;16.80;99.90
6270;DHT22;3168;51.684;6.954;2022-09-09T16:29:13;16.80;99.90
6270;DHT22;3168;51.684;6.954;2022-09-09T16:31:39;16.80;99.90